sensor_id;sensor_type;location;lat;lon;timestamp;temperature;humidity
72106;SHT30;59975;47.646;18.318;2023-02-28T00:00:31;1.34;62.96
72106;SHT30;59975;47.646;18.318;2023-02-28T00:02:56;1.30;62.82
72106;SHT30;59975;47.646;18.318;2023-02-28T00:05:23;1.37;62.38
72106;SHT30;59975;47.646;18.318;2023-02-28T00:07:50;1.34;62.15
72106;SHT30;59975;47.646;18.318;2023-02-28T00:10:21;1.32;62.68
72106;SHT30;59975;47.646;18.318;2023-02-28T00:12:49;1.34;63.51
72106;SHT30;59975;47.646;18.318;2023-02-28T00:15:16;1.38;62.81
72106;SHT30;59975;47.646;18.318;2023-02-28T00:17:42;1.34;63.57
72106;SHT30;59975;47.646;18.318;2023-02-28T00:20:08;1.37;63.06
72106;SHT30;59975;47.646;18.318;2023-02-28T00:22:43;1.34;63.59
72106;SHT30;59975;47.646;18.318;2023-02-28T00:25:11;1.35;63.46
72106;SHT30;59975;47.646;18.318;2023-02-28T00:27:37;1.40;63.47
72106;SHT30;59975;47.646;18.318;2023-02-28T00:30:05;1.45;63.33
72106;SHT30;59975;47.646;18.318;2023-02-28T00:32:31;1.44;64.46
72106;SHT30;59975;47.646;18.318;2023-02-28T00:34:57;1.41;64.62
72106;SHT30;59975;47.646;18.318;2023-02-28T00:37:22;1.42;64.49
72106;SHT30;59975;47.646;18.318;2023-02-28T00:39:48;1.40;64.63
72106;SHT30;59975;47.646;18.318;2023-02-28T00:42:13;1.40;64.95
72106;SHT30;59975;47.646;18.318;2023-02-28T00:44:39;1.34;65.29
72106;SHT30;59975;47.646;18.318;2023-02-28T00:47:05;1.28;65.70
72106;SHT30;59975;47.646;18.318;2023-02-28T00:49:30;1.34;65.58
72106;SHT30;59975;47.646;18.318;2023-02-28T00:51:56;1.32;65.42
72106;SHT30;59975;47.646;18.318;2023-02-28T00:54:22;1.30;65.61
72106;SHT30;59975;47.646;18.318;2023-02-28T00:56:48;1.35;65.56
72106;SHT30;59975;47.646;18.318;2023-02-28T00:59:15;1.40;64.95
72106;SHT30;59975;47.646;18.318;2023-02-28T01:01:41;1.41;65.79
72106;SHT30;59975;47.646;18.318;2023-02-28T01:04:07;1.41;65.22
72106;SHT30;59975;47.646;18.318;2023-02-28T01:06:33;1.45;64.16
72106;SHT30;59975;47.646;18.318;2023-02-28T01:08:59;1.38;63.97
72106;SHT30;59975;47.646;18.318;2023-02-28T01:11:25;1.34;64.38
72106;SHT30;59975;47.646;18.318;2023-02-28T01:13:51;1.35;64.58
72106;SHT30;59975;47.646;18.318;2023-02-28T01:16:17;1.26;65.06
72106;SHT30;59975;47.646;18.318;2023-02-28T01:18:42;1.28;64.72
72106;SHT30;59975;47.646;18.318;2023-02-28T01:21:11;1.20;65.33
72106;SHT30;59975;47.646;18.318;2023-02-28T01:23:38;1.17;65.80
72106;SHT30;59975;47.646;18.318;2023-02-28T01:26:09;1.27;65.63
72106;SHT30;59975;47.646;18.318;2023-02-28T01:28:35;1.23;65.81
72106;SHT30;59975;47.646;18.318;2023-02-28T01:31:01;1.17;66.19
72106;SHT30;59975;47.646;18.318;2023-02-28T01:33:26;1.32;65.38
72106;SHT30;59975;47.646;18.318;2023-02-28T01:36:03;1.27;65.60
72106;SHT30;59975;47.646;18.318;2023-02-28T01:38:29;1.23;66.88
72106;SHT30;59975;47.646;18.318;2023-02-28T01:40:55;1.23;67.12
72106;SHT30;59975;47.646;18.318;2023-02-28T01:43:26;1.13;67.53
72106;SHT30;59975;47.646;18.318;2023-02-28T01:45:54;1.14;67.72
72106;SHT30;59975;47.646;18.318;2023-02-28T01:48:26;1.10;67.80
72106;SHT30;59975;47.646;18.318;2023-02-28T01:50:53;1.16;67.90
72106;SHT30;59975;47.646;18.318;2023-02-28T01:53:24;1.05;67.64
72106;SHT30;59975;47.646;18.318;2023-02-28T01:55:53;1.14;66.05
72106;SHT30;59975;47.646;18.318;2023-02-28T01:58:19;1.13;66.47
72106;SHT30;59975;47.646;18.318;2023-02-28T02:00:45;1.20;66.91
72106;SHT30;59975;47.646;18.318;2023-02-28T02:03:13;1.27;66.73
72106;SHT30;59975;47.646;18.318;2023-02-28T02:05:41;1.31;65.86
72106;SHT30;59975;47.646;18.318;2023-02-28T02:08:12;1.24;65.12
72106;SHT30;59975;47.646;18.318;2023-02-28T02:10:44;1.21;65.31
72106;SHT30;59975;47.646;18.318;2023-02-28T02:13:14;1.24;65.99
72106;SHT30;59975;47.646;18.318;2023-02-28T02:16:08;1.30;65.24
72106;SHT30;59975;47.646;18.318;2023-02-28T02:19:30;1.30;65.38
72106;SHT30;59975;47.646;18.318;2023-02-28T02:21:53;1.34;64.87
72106;SHT30;59975;47.646;18.318;2023-02-28T02:27:16;1.32;64.64
72106;SHT30;59975;47.646;18.318;2023-02-28T02:29:48;1.42;63.41
72106;SHT30;59975;47.646;18.318;2023-02-28T02:40:42;1.41;63.37
72106;SHT30;59975;47.646;18.318;2023-02-28T02:46:29;1.34;63.37
72106;SHT30;59975;47.646;18.318;2023-02-28T02:48:57;1.40;63.48
72106;SHT30;59975;47.646;18.318;2023-02-28T02:51:27;1.38;63.31
72106;SHT30;59975;47.646;18.318;2023-02-28T02:54:12;1.42;63.09
72106;SHT30;59975;47.646;18.318;2023-02-28T02:56:43;1.38;63.15
72106;SHT30;59975;47.646;18.318;2023-02-28T02:59:11;1.41;63.15
72106;SHT30;59975;47.646;18.318;2023-02-28T03:01:39;1.38;63.73
72106;SHT30;59975;47.646;18.318;2023-02-28T03:04:12;1.41;64.02
72106;SHT30;59975;47.646;18.318;2023-02-28T03:06:38;1.41;63.31
72106;SHT30;59975;47.646;18.318;2023-02-28T03:09:03;1.51;61.22
72106;SHT30;59975;47.646;18.318;2023-02-28T03:11:30;1.44;62.12
72106;SHT30;59975;47.646;18.318;2023-02-28T03:17:16;1.35;63.41
72106;SHT30;59975;47.646;18.318;2023-02-28T03:22:51;1.40;63.42
72106;SHT30;59975;47.646;18.318;2023-02-28T03:25:20;1.49;62.33
72106;SHT30;59975;47.646;18.318;2023-02-28T03:27:59;1.40;63.45
72106;SHT30;59975;47.646;18.318;2023-02-28T03:33:14;1.38;62.92
72106;SHT30;59975;47.646;18.318;2023-02-28T03:36:09;1.42;62.41
72106;SHT30;59975;47.646;18.318;2023-02-28T03:41:39;1.45;61.57
72106;SHT30;59975;47.646;18.318;2023-02-28T03:44:12;1.54;64.73
72106;SHT30;59975;47.646;18.318;2023-02-28T03:46:46;1.49;66.63
72106;SHT30;59975;47.646;18.318;2023-02-28T03:49:20;1.35;67.12
72106;SHT30;59975;47.646;18.318;2023-02-28T03:51:49;1.26;67.19
72106;SHT30;59975;47.646;18.318;2023-02-28T03:54:24;1.34;67.75
72106;SHT30;59975;47.646;18.318;2023-02-28T03:56:56;1.26;68.46
72106;SHT30;59975;47.646;18.318;2023-02-28T03:59:28;1.20;69.20
72106;SHT30;59975;47.646;18.318;2023-02-28T04:01:57;1.18;69.68
72106;SHT30;59975;47.646;18.318;2023-02-28T04:04:24;1.11;69.70
72106;SHT30;59975;47.646;18.318;2023-02-28T04:07:01;1.17;69.87
72106;SHT30;59975;47.646;18.318;2023-02-28T04:09:27;1.14;70.09
72106;SHT30;59975;47.646;18.318;2023-02-28T04:11:53;1.05;70.58
72106;SHT30;59975;47.646;18.318;2023-02-28T04:14:21;0.97;70.47
72106;SHT30;59975;47.646;18.318;2023-02-28T04:16:46;0.96;70.66
72106;SHT30;59975;47.646;18.318;2023-02-28T04:19:12;1.05;70.77
72106;SHT30;59975;47.646;18.318;2023-02-28T04:21:41;1.00;70.90
72106;SHT30;59975;47.646;18.318;2023-02-28T04:24:09;0.97;71.03
72106;SHT30;59975;47.646;18.318;2023-02-28T04:26:40;0.84;71.32
72106;SHT30;59975;47.646;18.318;2023-02-28T04:29:06;0.87;70.96
72106;SHT30;59975;47.646;18.318;2023-02-28T04:31:33;0.84;71.37
72106;SHT30;59975;47.646;18.318;2023-02-28T04:33:59;0.81;71.42
72106;SHT30;59975;47.646;18.318;2023-02-28T04:36:24;0.86;71.56
72106;SHT30;59975;47.646;18.318;2023-02-28T04:38:50;0.80;72.01
72106;SHT30;59975;47.646;18.318;2023-02-28T04:41:16;0.86;71.94
72106;SHT30;59975;47.646;18.318;2023-02-28T04:43:42;0.84;72.23
72106;SHT30;59975;47.646;18.318;2023-02-28T04:46:08;0.83;72.67
72106;SHT30;59975;47.646;18.318;2023-02-28T04:48:37;0.86;72.75
72106;SHT30;59975;47.646;18.318;2023-02-28T04:51:04;0.88;72.91
72106;SHT30;59975;47.646;18.318;2023-02-28T04:53:31;0.86;73.20
72106;SHT30;59975;47.646;18.318;2023-02-28T04:55:57;0.86;72.95
72106;SHT30;59975;47.646;18.318;2023-02-28T04:58:23;0.84;73.00
72106;SHT30;59975;47.646;18.318;2023-02-28T05:00:50;0.83;72.70
72106;SHT30;59975;47.646;18.318;2023-02-28T05:03:15;0.80;72.73
72106;SHT30;59975;47.646;18.318;2023-02-28T05:05:41;0.76;73.42
72106;SHT30;59975;47.646;18.318;2023-02-28T05:08:06;0.76;73.09
72106;SHT30;59975;47.646;18.318;2023-02-28T05:10:32;0.66;73.29
72106;SHT30;59975;47.646;18.318;2023-02-28T05:12:58;0.63;73.59
72106;SHT30;59975;47.646;18.318;2023-02-28T05:15:23;0.56;74.15
72106;SHT30;59975;47.646;18.318;2023-02-28T05:17:49;0.50;74.20
72106;SHT30;59975;47.646;18.318;2023-02-28T05:20:15;0.39;74.65
72106;SHT30;59975;47.646;18.318;2023-02-28T05:22:41;0.32;75.25
72106;SHT30;59975;47.646;18.318;2023-02-28T07:01:35;1.76;71.93
72106;SHT30;59975;47.646;18.318;2023-02-28T07:11:01;2.03;71.55
72106;SHT30;59975;47.646;18.318;2023-02-28T07:13:57;2.01;70.66
72106;SHT30;59975;47.646;18.318;2023-02-28T08:00:11;3.02;63.18
72106;SHT30;59975;47.646;18.318;2023-02-28T08:02:44;3.04;62.45
72106;SHT30;59975;47.646;18.318;2023-02-28T08:05:10;2.83;63.86
72106;SHT30;59975;47.646;18.318;2023-02-28T08:07:36;2.84;64.48
72106;SHT30;59975;47.646;18.318;2023-02-28T08:10:01;2.89;62.27
72106;SHT30;59975;47.646;18.318;2023-02-28T08:12:28;3.18;63.03
72106;SHT30;59975;47.646;18.318;2023-02-28T08:14:54;3.36;63.22
72106;SHT30;59975;47.646;18.318;2023-02-28T08:17:41;3.60;60.36
72106;SHT30;59975;47.646;18.318;2023-02-28T08:20:09;3.60;59.01
72106;SHT30;59975;47.646;18.318;2023-02-28T08:22:59;3.67;59.88
72106;SHT30;59975;47.646;18.318;2023-02-28T08:25:24;3.76;61.54
72106;SHT30;59975;47.646;18.318;2023-02-28T08:28:35;3.82;61.78
72106;SHT30;59975;47.646;18.318;2023-02-28T08:31:11;3.91;59.90
72106;SHT30;59975;47.646;18.318;2023-02-28T08:33:56;4.04;58.53
72106;SHT30;59975;47.646;18.318;2023-02-28T08:36:27;4.07;57.61
72106;SHT30;59975;47.646;18.318;2023-02-28T08:38:58;4.14;56.41
72106;SHT30;59975;47.646;18.318;2023-02-28T08:41:30;4.15;55.71
72106;SHT30;59975;47.646;18.318;2023-02-28T08:44:10;4.37;53.27
72106;SHT30;59975;47.646;18.318;2023-02-28T08:46:38;4.28;52.96
72106;SHT30;59975;47.646;18.318;2023-02-28T08:49:33;4.41;51.54
72106;SHT30;59975;47.646;18.318;2023-02-28T08:52:19;4.10;51.39
72106;SHT30;59975;47.646;18.318;2023-02-28T08:55:15;4.25;50.97
72106;SHT30;59975;47.646;18.318;2023-02-28T08:57:52;4.20;51.63
72106;SHT30;59975;47.646;18.318;2023-02-28T09:00:19;4.25;53.10
72106;SHT30;59975;47.646;18.318;2023-02-28T09:02:45;4.40;52.26
72106;SHT30;59975;47.646;18.318;2023-02-28T09:05:10;4.55;52.43
72106;SHT30;59975;47.646;18.318;2023-02-28T09:07:56;4.51;53.56
72106;SHT30;59975;47.646;18.318;2023-02-28T09:27:11;3.67;54.63
72106;SHT30;59975;47.646;18.318;2023-02-28T09:30:00;3.69;54.94
72106;SHT30;59975;47.646;18.318;2023-02-28T09:32:30;3.90;50.58
72106;SHT30;59975;47.646;18.318;2023-02-28T09:35:29;3.94;53.95
72106;SHT30;59975;47.646;18.318;2023-02-28T09:42:11;4.08;53.63
72106;SHT30;59975;47.646;18.318;2023-02-28T09:44:57;4.01;55.19
72106;SHT30;59975;47.646;18.318;2023-02-28T09:48:23;4.01;55.11
72106;SHT30;59975;47.646;18.318;2023-02-28T09:50:51;3.82;55.46
72106;SHT30;59975;47.646;18.318;2023-02-28T09:53:42;3.64;56.09
72106;SHT30;59975;47.646;18.318;2023-02-28T09:56:44;3.82;56.06
72106;SHT30;59975;47.646;18.318;2023-02-28T10:09:07;3.72;56.52
72106;SHT30;59975;47.646;18.318;2023-02-28T10:11:39;3.76;54.76
72106;SHT30;59975;47.646;18.318;2023-02-28T10:14:15;3.80;55.55
72106;SHT30;59975;47.646;18.318;2023-02-28T10:16:46;3.89;54.06
72106;SHT30;59975;47.646;18.318;2023-02-28T10:19:27;3.97;54.70
72106;SHT30;59975;47.646;18.318;2023-02-28T10:22:17;4.08;54.54
72106;SHT30;59975;47.646;18.318;2023-02-28T10:24:51;4.11;53.94
72106;SHT30;59975;47.646;18.318;2023-02-28T10:27:30;4.11;53.16
72106;SHT30;59975;47.646;18.318;2023-02-28T10:29:58;4.05;53.85
72106;SHT30;59975;47.646;18.318;2023-02-28T10:32:35;4.14;53.59
72106;SHT30;59975;47.646;18.318;2023-02-28T10:37:32;4.25;52.72
72106;SHT30;59975;47.646;18.318;2023-02-28T10:40:04;4.31;52.92
72106;SHT30;59975;47.646;18.318;2023-02-28T10:42:31;4.37;53.13
72106;SHT30;59975;47.646;18.318;2023-02-28T10:45:14;4.31;52.21
72106;SHT30;59975;47.646;18.318;2023-02-28T10:47:58;4.35;53.19
72106;SHT30;59975;47.646;18.318;2023-02-28T10:55:56;4.55;51.36
72106;SHT30;59975;47.646;18.318;2023-02-28T10:58:26;4.58;50.78
72106;SHT30;59975;47.646;18.318;2023-02-28T11:00:52;4.64;50.91
72106;SHT30;59975;47.646;18.318;2023-02-28T11:03:48;4.54;49.86
72106;SHT30;59975;47.646;18.318;2023-02-28T11:06:20;4.61;49.76
72106;SHT30;59975;47.646;18.318;2023-02-28T11:08:58;4.61;49.14
72106;SHT30;59975;47.646;18.318;2023-02-28T11:11:26;4.86;48.50
72106;SHT30;59975;47.646;18.318;2023-02-28T11:13:56;4.90;50.59
72106;SHT30;59975;47.646;18.318;2023-02-28T11:16:33;5.05;49.60
72106;SHT30;59975;47.646;18.318;2023-02-28T11:19:00;5.08;48.60
72106;SHT30;59975;47.646;18.318;2023-02-28T11:21:32;4.72;47.76
72106;SHT30;59975;47.646;18.318;2023-02-28T11:24:27;4.58;48.28
72106;SHT30;59975;47.646;18.318;2023-02-28T11:26:54;4.88;48.67
72106;SHT30;59975;47.646;18.318;2023-02-28T11:29:27;4.80;48.21
72106;SHT30;59975;47.646;18.318;2023-02-28T11:32:29;4.89;49.76
72106;SHT30;59975;47.646;18.318;2023-02-28T11:35:26;5.23;50.51
72106;SHT30;59975;47.646;18.318;2023-02-28T11:38:01;5.16;48.95
72106;SHT30;59975;47.646;18.318;2023-02-28T11:40:43;5.29;48.90
72106;SHT30;59975;47.646;18.318;2023-02-28T11:48:55;5.10;48.68
72106;SHT30;59975;47.646;18.318;2023-02-28T11:51:41;5.20;49.60
72106;SHT30;59975;47.646;18.318;2023-02-28T11:56:57;5.26;48.97
72106;SHT30;59975;47.646;18.318;2023-02-28T12:07:55;5.72;49.45
72106;SHT30;59975;47.646;18.318;2023-02-28T12:10:29;5.82;51.68
72106;SHT30;59975;47.646;18.318;2023-02-28T12:21:15;5.54;48.53
72106;SHT30;59975;47.646;18.318;2023-02-28T12:26:42;5.74;50.27
72106;SHT30;59975;47.646;18.318;2023-02-28T12:29:25;5.91;48.02
72106;SHT30;59975;47.646;18.318;2023-02-28T12:34:41;5.88;48.27
72106;SHT30;59975;47.646;18.318;2023-02-28T12:37:17;5.87;48.23
72106;SHT30;59975;47.646;18.318;2023-02-28T12:39:48;5.87;47.92
72106;SHT30;59975;47.646;18.318;2023-02-28T12:42:26;5.74;48.02
72106;SHT30;59975;47.646;18.318;2023-02-28T12:45:02;5.78;47.61
72106;SHT30;59975;47.646;18.318;2023-02-28T12:47:30;5.92;48.96
72106;SHT30;59975;47.646;18.318;2023-02-28T12:50:05;5.88;48.46
72106;SHT30;59975;47.646;18.318;2023-02-28T12:55:33;5.77;47.95
72106;SHT30;59975;47.646;18.318;2023-02-28T12:58:13;5.87;48.63
72106;SHT30;59975;47.646;18.318;2023-02-28T13:09:03;6.01;49.74
72106;SHT30;59975;47.646;18.318;2023-02-28T13:11:49;6.21;47.06
72106;SHT30;59975;47.646;18.318;2023-02-28T13:17:03;6.12;50.10
72106;SHT30;59975;47.646;18.318;2023-02-28T13:22:41;6.05;49.18
72106;SHT30;59975;47.646;18.318;2023-02-28T13:28:00;5.91;48.57
72106;SHT30;59975;47.646;18.318;2023-02-28T13:33:30;6.05;48.62
72106;SHT30;59975;47.646;18.318;2023-02-28T13:38:47;6.28;50.54
72106;SHT30;59975;47.646;18.318;2023-02-28T13:44:16;6.22;48.15
72106;SHT30;59975;47.646;18.318;2023-02-28T13:57:17;6.12;50.24
72106;SHT30;59975;47.646;18.318;2023-02-28T13:59:49;6.22;49.77
72106;SHT30;59975;47.646;18.318;2023-02-28T14:05:15;6.22;48.98
72106;SHT30;59975;47.646;18.318;2023-02-28T14:07:57;6.29;49.71
72106;SHT30;59975;47.646;18.318;2023-02-28T14:10:31;6.22;49.48
72106;SHT30;59975;47.646;18.318;2023-02-28T14:15:47;6.12;48.99
72106;SHT30;59975;47.646;18.318;2023-02-28T14:18:21;6.02;49.11
72106;SHT30;59975;47.646;18.318;2023-02-28T14:20:49;6.02;49.51
72106;SHT30;59975;47.646;18.318;2023-02-28T14:23:21;6.24;49.00
72106;SHT30;59975;47.646;18.318;2023-02-28T14:26:28;6.26;48.67
72106;SHT30;59975;47.646;18.318;2023-02-28T14:29:08;6.19;49.31
72106;SHT30;59975;47.646;18.318;2023-02-28T14:32:15;6.28;49.51
72106;SHT30;59975;47.646;18.318;2023-02-28T14:37:32;6.18;49.41
72106;SHT30;59975;47.646;18.318;2023-02-28T14:39:59;6.32;48.78
72106;SHT30;59975;47.646;18.318;2023-02-28T14:42:36;6.37;48.97
72106;SHT30;59975;47.646;18.318;2023-02-28T14:45:19;6.32;49.09
72106;SHT30;59975;47.646;18.318;2023-02-28T14:47:46;6.29;48.87
72106;SHT30;59975;47.646;18.318;2023-02-28T14:50:21;6.22;49.39
72106;SHT30;59975;47.646;18.318;2023-02-28T14:52:52;6.21;49.90
72106;SHT30;59975;47.646;18.318;2023-02-28T14:55:19;6.21;52.57
72106;SHT30;59975;47.646;18.318;2023-02-28T14:57:57;6.11;50.11
72106;SHT30;59975;47.646;18.318;2023-02-28T15:00:25;6.05;49.59
72106;SHT30;59975;47.646;18.318;2023-02-28T15:02:50;6.21;49.35
72106;SHT30;59975;47.646;18.318;2023-02-28T15:05:23;6.08;49.54
72106;SHT30;59975;47.646;18.318;2023-02-28T15:08:02;6.06;49.69
72106;SHT30;59975;47.646;18.318;2023-02-28T15:10:28;5.99;49.53
72106;SHT30;59975;47.646;18.318;2023-02-28T15:12:59;6.01;51.15
72106;SHT30;59975;47.646;18.318;2023-02-28T15:15:42;6.04;50.83
72106;SHT30;59975;47.646;18.318;2023-02-28T15:20:53;5.98;50.58
72106;SHT30;59975;47.646;18.318;2023-02-28T15:23:20;5.99;51.43
72106;SHT30;59975;47.646;18.318;2023-02-28T15:25:47;5.94;51.07
72106;SHT30;59975;47.646;18.318;2023-02-28T15:28:17;5.95;50.14
72106;SHT30;59975;47.646;18.318;2023-02-28T15:30:56;5.94;50.64
72106;SHT30;59975;47.646;18.318;2023-02-28T15:33:25;5.82;50.35
72106;SHT30;59975;47.646;18.318;2023-02-28T15:35:51;5.87;50.95
72106;SHT30;59975;47.646;18.318;2023-02-28T15:38:28;5.81;50.84
72106;SHT30;59975;47.646;18.318;2023-02-28T15:40:55;5.75;51.04
72106;SHT30;59975;47.646;18.318;2023-02-28T15:43:42;5.70;51.66
72106;SHT30;59975;47.646;18.318;2023-02-28T15:51:16;5.68;51.73
72106;SHT30;59975;47.646;18.318;2023-02-28T15:53:54;5.62;51.93
72106;SHT30;59975;47.646;18.318;2023-02-28T15:56:27;5.51;52.22
72106;SHT30;59975;47.646;18.318;2023-02-28T15:58:57;5.50;52.16
72106;SHT30;59975;47.646;18.318;2023-02-28T16:01:25;5.58;52.21
72106;SHT30;59975;47.646;18.318;2023-02-28T16:03:55;5.40;52.50
72106;SHT30;59975;47.646;18.318;2023-02-28T16:08:47;5.33;52.67
72106;SHT30;59975;47.646;18.318;2023-02-28T16:11:16;5.27;52.81
72106;SHT30;59975;47.646;18.318;2023-02-28T16:13:42;5.29;52.90
72106;SHT30;59975;47.646;18.318;2023-02-28T16:16:07;5.15;53.93
72106;SHT30;59975;47.646;18.318;2023-02-28T16:18:33;5.20;53.94
72106;SHT30;59975;47.646;18.318;2023-02-28T16:20:58;5.00;54.32
72106;SHT30;59975;47.646;18.318;2023-02-28T16:23:24;4.85;55.18
72106;SHT30;59975;47.646;18.318;2023-02-28T16:25:49;4.80;55.77
72106;SHT30;59975;47.646;18.318;2023-02-28T16:28:22;4.79;55.56
72106;SHT30;59975;47.646;18.318;2023-02-28T16:30:51;4.72;55.83
72106;SHT30;59975;47.646;18.318;2023-02-28T16:33:16;4.62;56.18
72106;SHT30;59975;47.646;18.318;2023-02-28T16:35:42;4.52;56.38
72106;SHT30;59975;47.646;18.318;2023-02-28T16:38:07;4.37;57.37
72106;SHT30;59975;47.646;18.318;2023-02-28T16:40:34;4.28;58.11
72106;SHT30;59975;47.646;18.318;2023-02-28T16:43:13;4.38;57.20
72106;SHT30;59975;47.646;18.318;2023-02-28T16:45:40;4.34;57.37
72106;SHT30;59975;47.646;18.318;2023-02-28T16:48:11;4.35;57.24
72106;SHT30;59975;47.646;18.318;2023-02-28T16:50:37;4.31;57.46
72106;SHT30;59975;47.646;18.318;2023-02-28T16:53:04;4.33;57.28
72106;SHT30;59975;47.646;18.318;2023-02-28T16:55:29;4.33;57.41
72106;SHT30;59975;47.646;18.318;2023-02-28T16:57:57;4.28;57.37
72106;SHT30;59975;47.646;18.318;2023-02-28T17:00:23;4.21;57.67
72106;SHT30;59975;47.646;18.318;2023-02-28T17:02:49;4.18;57.87
72106;SHT30;59975;47.646;18.318;2023-02-28T17:05:15;4.13;58.26
72106;SHT30;59975;47.646;18.318;2023-02-28T17:07:41;4.04;58.57
72106;SHT30;59975;47.646;18.318;2023-02-28T17:12:36;3.94;58.88
72106;SHT30;59975;47.646;18.318;2023-02-28T17:15:01;3.89;59.35
72106;SHT30;59975;47.646;18.318;2023-02-28T17:17:28;3.84;59.49
72106;SHT30;59975;47.646;18.318;2023-02-28T17:19:54;3.82;59.72
72106;SHT30;59975;47.646;18.318;2023-02-28T17:22:19;3.84;59.94
72106;SHT30;59975;47.646;18.318;2023-02-28T17:24:45;3.82;60.26
72106;SHT30;59975;47.646;18.318;2023-02-28T17:27:12;3.79;60.54
72106;SHT30;59975;47.646;18.318;2023-02-28T17:29:38;3.82;60.77
72106;SHT30;59975;47.646;18.318;2023-02-28T17:32:04;3.74;61.68
72106;SHT30;59975;47.646;18.318;2023-02-28T17:34:29;3.76;62.40
72106;SHT30;59975;47.646;18.318;2023-02-28T17:36:55;3.76;64.45
72106;SHT30;59975;47.646;18.318;2023-02-28T17:39:21;3.73;63.49
72106;SHT30;59975;47.646;18.318;2023-02-28T17:41:56;3.76;62.65
72106;SHT30;59975;47.646;18.318;2023-02-28T17:44:22;3.82;63.31
72106;SHT30;59975;47.646;18.318;2023-02-28T17:46:49;3.82;63.58
72106;SHT30;59975;47.646;18.318;2023-02-28T17:49:15;3.74;64.19
72106;SHT30;59975;47.646;18.318;2023-02-28T17:51:41;3.74;64.31
72106;SHT30;59975;47.646;18.318;2023-02-28T17:54:07;3.76;64.01
72106;SHT30;59975;47.646;18.318;2023-02-28T17:56:33;3.77;63.56
72106;SHT30;59975;47.646;18.318;2023-02-28T17:58:58;3.82;64.34
72106;SHT30;59975;47.646;18.318;2023-02-28T18:01:24;3.83;64.14
72106;SHT30;59975;47.646;18.318;2023-02-28T18:03:54;3.84;63.88
72106;SHT30;59975;47.646;18.318;2023-02-28T18:06:27;3.87;64.25
72106;SHT30;59975;47.646;18.318;2023-02-28T18:08:53;3.90;64.07
72106;SHT30;59975;47.646;18.318;2023-02-28T18:11:20;3.87;64.00
72106;SHT30;59975;47.646;18.318;2023-02-28T18:13:48;3.86;64.37
72106;SHT30;59975;47.646;18.318;2023-02-28T18:16:15;3.82;64.63
72106;SHT30;59975;47.646;18.318;2023-02-28T18:18:41;3.79;64.57
72106;SHT30;59975;47.646;18.318;2023-02-28T18:21:08;3.82;63.87
72106;SHT30;59975;47.646;18.318;2023-02-28T18:23:35;3.93;62.86
72106;SHT30;59975;47.646;18.318;2023-02-28T18:26:00;3.94;62.82
72106;SHT30;59975;47.646;18.318;2023-02-28T18:28:26;3.98;62.26
72106;SHT30;59975;47.646;18.318;2023-02-28T18:30:52;4.05;62.24
72106;SHT30;59975;47.646;18.318;2023-02-28T18:33:17;4.01;62.17
72106;SHT30;59975;47.646;18.318;2023-02-28T18:35:43;4.01;62.02
72106;SHT30;59975;47.646;18.318;2023-02-28T18:38:14;3.98;62.76
72106;SHT30;59975;47.646;18.318;2023-02-28T18:40:40;4.03;62.27
72106;SHT30;59975;47.646;18.318;2023-02-28T18:43:07;4.10;62.14
72106;SHT30;59975;47.646;18.318;2023-02-28T18:45:38;4.01;63.11
72106;SHT30;59975;47.646;18.318;2023-02-28T18:48:04;4.00;63.26
72106;SHT30;59975;47.646;18.318;2023-02-28T18:50:30;4.00;63.81
72106;SHT30;59975;47.646;18.318;2023-02-28T18:52:56;4.01;64.15
72106;SHT30;59975;47.646;18.318;2023-02-28T18:55:24;4.03;63.74
72106;SHT30;59975;47.646;18.318;2023-02-28T18:57:52;4.13;63.98
72106;SHT30;59975;47.646;18.318;2023-02-28T19:00:18;4.07;63.96
72106;SHT30;59975;47.646;18.318;2023-02-28T19:02:47;4.07;63.97
72106;SHT30;59975;47.646;18.318;2023-02-28T19:05:13;4.04;64.26
72106;SHT30;59975;47.646;18.318;2023-02-28T19:07:39;4.03;64.53
72106;SHT30;59975;47.646;18.318;2023-02-28T19:10:05;4.14;64.34
72106;SHT30;59975;47.646;18.318;2023-02-28T19:12:35;4.15;64.92
72106;SHT30;59975;47.646;18.318;2023-02-28T19:15:02;4.14;64.81
72106;SHT30;59975;47.646;18.318;2023-02-28T19:17:28;4.21;64.86
72106;SHT30;59975;47.646;18.318;2023-02-28T19:19:53;4.18;64.90
72106;SHT30;59975;47.646;18.318;2023-02-28T19:22:19;4.22;64.30
72106;SHT30;59975;47.646;18.318;2023-02-28T19:24:44;4.15;64.54
72106;SHT30;59975;47.646;18.318;2023-02-28T19:27:10;4.08;65.16
72106;SHT30;59975;47.646;18.318;2023-02-28T19:29:35;4.01;65.06
72106;SHT30;59975;47.646;18.318;2023-02-28T19:32:01;4.00;65.02
72106;SHT30;59975;47.646;18.318;2023-02-28T19:34:28;3.98;65.28
72106;SHT30;59975;47.646;18.318;2023-02-28T19:36:54;4.05;65.22
72106;SHT30;59975;47.646;18.318;2023-02-28T19:39:19;3.90;65.76
72106;SHT30;59975;47.646;18.318;2023-02-28T19:41:44;3.98;65.35
72106;SHT30;59975;47.646;18.318;2023-02-28T19:44:10;4.03;65.62
72106;SHT30;59975;47.646;18.318;2023-02-28T19:46:35;3.98;65.66
72106;SHT30;59975;47.646;18.318;2023-02-28T19:49:01;3.97;65.61
72106;SHT30;59975;47.646;18.318;2023-02-28T19:51:27;3.91;65.65
72106;SHT30;59975;47.646;18.318;2023-02-28T19:53:52;3.94;65.77
72106;SHT30;59975;47.646;18.318;2023-02-28T19:56:18;3.97;65.89
72106;SHT30;59975;47.646;18.318;2023-02-28T19:58:44;3.97;66.05
72106;SHT30;59975;47.646;18.318;2023-02-28T20:01:11;3.98;65.96
72106;SHT30;59975;47.646;18.318;2023-02-28T20:03:37;4.03;66.09
72106;SHT30;59975;47.646;18.318;2023-02-28T20:06:05;4.04;66.33
72106;SHT30;59975;47.646;18.318;2023-02-28T20:08:32;4.11;66.03
72106;SHT30;59975;47.646;18.318;2023-02-28T20:11:06;4.13;65.73
72106;SHT30;59975;47.646;18.318;2023-02-28T20:13:32;4.15;65.87
72106;SHT30;59975;47.646;18.318;2023-02-28T20:16:00;4.15;65.85
72106;SHT30;59975;47.646;18.318;2023-02-28T20:18:26;4.14;65.55
72106;SHT30;59975;47.646;18.318;2023-02-28T20:20:51;4.20;65.81
72106;SHT30;59975;47.646;18.318;2023-02-28T20:23:17;4.21;65.81
72106;SHT30;59975;47.646;18.318;2023-02-28T20:25:42;4.25;66.02
72106;SHT30;59975;47.646;18.318;2023-02-28T20:28:07;4.22;66.16
72106;SHT30;59975;47.646;18.318;2023-02-28T20:30:33;4.27;65.78
72106;SHT30;59975;47.646;18.318;2023-02-28T20:32:58;4.27;65.49
72106;SHT30;59975;47.646;18.318;2023-02-28T20:35:24;4.34;65.47
72106;SHT30;59975;47.646;18.318;2023-02-28T20:37:49;4.30;65.73
72106;SHT30;59975;47.646;18.318;2023-02-28T20:40:15;4.31;65.95
72106;SHT30;59975;47.646;18.318;2023-02-28T20:42:40;4.41;65.72
72106;SHT30;59975;47.646;18.318;2023-02-28T20:45:06;4.34;65.59
72106;SHT30;59975;47.646;18.318;2023-02-28T20:47:32;4.40;65.71
72106;SHT30;59975;47.646;18.318;2023-02-28T20:49:57;4.44;65.50
72106;SHT30;59975;47.646;18.318;2023-02-28T20:52:23;4.45;65.69
72106;SHT30;59975;47.646;18.318;2023-02-28T20:54:48;4.42;66.07